Time;durP1;ratioP1;P1;durP2;ratioP2;P2;SDS_P1;SDS_P2;PMS_P1;PMS_P2;Temp;Humidity;BMP_temperature;BMP_pressure;BME280_temperature;BME280_humidity;BME280_pressure;Samples;Min_cycle;Max_cycle;Signal;HPM_P1;HPM_P2
2024/02/18 00:02:01;;;;;;;8.40;4.03;;;10.10;99.90;;;;;;5031933;28;20040;-70
2024/02/18 00:04:33;;;;;;;9.25;5.10;;;10.10;99.90;;;;;;5030813;28;20485;-70
2024/02/18 00:06:59;;;;;;;9.57;4.72;;;10.10;99.90;;;;;;5014565;28;20446;-70
2024/02/18 00:09:25;;;;;;;10.18;4.65;;;10.00;99.90;;;;;;5027604;28;20026;-70
2024/02/18 00:11:51;;;;;;;9.32;5.28;;;10.00;99.90;;;;;;5025725;28;20076;-69
2024/02/18 00:14:17;;;;;;;8.65;5.32;;;10.00;99.90;;;;;;5030082;28;20092;-69
2024/02/18 00:16:43;;;;;;;9.07;4.82;;;9.90;99.90;;;;;;5014396;28;20358;-69
2024/02/18 00:19:09;;;;;;;8.18;4.70;;;9.90;99.90;;;;;;5014473;28;20037;-69
2024/02/18 00:21:37;;;;;;;9.10;4.93;;;9.90;99.90;;;;;;5027320;28;20025;-69
2024/02/18 00:24:04;;;;;;;7.00;4.10;;;9.80;99.90;;;;;;5030403;28;20783;-69
2024/02/18 00:26:29;;;;;;;8.40;4.68;;;9.80;99.90;;;;;;5013371;28;20057;-69
2024/02/18 00:28:55;;;;;;;6.70;2.92;;;9.80;99.90;;;;;;5031220;28;20091;-69
2024/02/18 00:31:21;;;;;;;8.40;4.00;;;9.80;99.90;;;;;;5031117;28;20051;-70
2024/02/18 00:33:47;;;;;;;6.18;3.60;;;9.70;99.90;;;;;;5013748;28;20455;-70
2024/02/18 00:36:13;;;;;;;8.93;4.20;;;9.60;99.90;;;;;;5030624;28;20033;-70
2024/02/18 00:38:39;;;;;;;10.07;3.45;;;9.70;99.90;;;;;;5014168;28;20030;-70
2024/02/18 00:41:06;;;;;;;10.95;5.15;;;9.70;99.90;;;;;;5031296;28;20091;-70
2024/02/18 00:43:33;;;;;;;6.22;4.22;;;9.80;99.90;;;;;;5029837;28;20018;-70
2024/02/18 00:45:58;;;;;;;6.22;3.67;;;9.70;99.90;;;;;;5031530;28;20493;-69
2024/02/18 00:48:24;;;;;;;8.07;4.93;;;9.70;99.90;;;;;;5032077;28;20051;-69
2024/02/18 00:50:50;;;;;;;8.30;4.38;;;9.60;99.90;;;;;;5025311;28;20026;-70
2024/02/18 00:53:16;;;;;;;6.72;3.40;;;9.50;99.90;;;;;;5021420;28;20429;-69
2024/02/18 00:55:44;;;;;;;6.18;3.50;;;9.40;99.90;;;;;;5015131;28;20037;-69
2024/02/18 00:58:13;;;;;;;8.43;4.30;;;9.30;99.90;;;;;;5015281;28;20475;-69
2024/02/18 01:00:40;;;;;;;5.55;3.35;;;9.30;99.90;;;;;;5021283;28;20033;-69
2024/02/18 01:03:08;;;;;;;8.55;5.05;;;9.30;99.90;;;;;;5029659;28;20025;-70
2024/02/18 01:05:34;;;;;;;7.38;4.60;;;9.20;99.90;;;;;;5029619;28;20044;-70
2024/02/18 01:07:59;;;;;;;8.40;4.28;;;9.20;99.90;;;;;;5026411;28;20029;-70
2024/02/18 01:10:25;;;;;;;10.70;4.15;;;9.20;99.90;;;;;;5030574;28;20041;-70
2024/02/18 01:12:51;;;;;;;8.63;4.25;;;9.20;99.90;;;;;;5029921;28;20378;-70
2024/02/18 01:15:17;;;;;;;7.45;4.38;;;9.10;99.90;;;;;;5030704;28;20034;-70
2024/02/18 01:17:43;;;;;;;7.55;4.80;;;9.00;99.90;;;;;;5030583;28;20034;-70
2024/02/18 01:20:09;;;;;;;8.55;3.90;;;9.00;99.90;;;;;;5029759;28;20022;-70
2024/02/18 01:22:35;;;;;;;6.75;4.50;;;9.00;99.90;;;;;;5020342;28;20026;-70
2024/02/18 01:25:02;;;;;;;13.30;5.13;;;8.90;99.90;;;;;;5029234;28;20029;-70
2024/02/18 01:27:28;;;;;;;6.15;4.35;;;8.80;99.90;;;;;;5027359;28;20052;-70
2024/02/18 01:29:54;;;;;;;10.07;3.63;;;8.70;99.90;;;;;;5029490;28;20033;-70
2024/02/18 01:32:20;;;;;;;12.43;4.65;;;8.70;99.90;;;;;;5029887;28;20482;-70
2024/02/18 01:34:46;;;;;;;5.55;3.78;;;8.70;99.90;;;;;;5022222;28;20065;-70
2024/02/18 01:37:11;;;;;;;7.35;4.07;;;8.60;99.90;;;;;;5027837;28;20044;-70
2024/02/18 01:39:37;;;;;;;8.43;4.93;;;8.60;99.90;;;;;;5022627;28;20474;-70
2024/02/18 01:42:03;;;;;;;17.45;3.90;;;8.50;99.90;;;;;;5017151;28;20115;-70
2024/02/18 01:44:29;;;;;;;7.90;4.65;;;8.50;99.90;;;;;;5020963;28;20022;-70
2024/02/18 01:46:55;;;;;;;7.57;4.03;;;8.50;99.90;;;;;;5028646;28;20120;-70
2024/02/18 01:49:21;;;;;;;9.70;4.57;;;8.50;99.90;;;;;;5030487;28;20045;-70
2024/02/18 01:51:49;;;;;;;7.10;4.43;;;8.40;99.90;;;;;;5028168;28;20025;-70
2024/02/18 01:54:16;;;;;;;7.25;3.83;;;8.30;99.90;;;;;;5027342;28;20044;-70
2024/02/18 01:56:43;;;;;;;7.47;3.97;;;8.30;99.90;;;;;;5011404;28;20041;-70
2024/02/18 01:59:09;;;;;;;12.63;5.38;;;8.30;99.90;;;;;;5025755;28;20038;-70
2024/02/18 02:01:36;;;;;;;10.05;5.10;;;8.20;99.90;;;;;;5030104;28;20021;-70
2024/02/18 02:04:02;;;;;;;7.13;4.20;;;8.20;99.90;;;;;;5027008;28;20785;-70
2024/02/18 02:06:29;;;;;;;8.35;4.20;;;8.10;99.90;;;;;;5017816;28;20045;-70
2024/02/18 02:08:59;;;;;;;11.30;4.50;;;8.10;99.90;;;;;;5027031;28;20080;-70
2024/02/18 02:11:25;;;;;;;8.07;5.00;;;8.00;99.90;;;;;;5031323;28;20404;-70
2024/02/18 02:13:51;;;;;;;8.20;5.30;;;8.00;99.90;;;;;;5028685;28;20029;-70
2024/02/18 02:16:17;;;;;;;12.85;4.38;;;7.90;99.90;;;;;;5021917;28;20033;-70
2024/02/18 02:18:42;;;;;;;14.63;5.05;;;7.90;99.90;;;;;;5006564;28;20037;-68
2024/02/18 02:21:09;;;;;;;8.90;4.30;;;7.80;99.90;;;;;;5030270;28;20397;-68
2024/02/18 02:23:34;;;;;;;9.75;4.05;;;7.80;99.90;;;;;;5033621;28;20028;-68
2024/02/18 02:26:01;;;;;;;7.90;4.65;;;7.80;99.90;;;;;;5032202;28;20033;-69
2024/02/18 02:28:31;;;;;;;7.35;4.03;;;7.70;99.90;;;;;;5032995;28;20029;-69
2024/02/18 02:30:59;;;;;;;7.10;4.93;;;7.70;99.90;;;;;;5032731;28;20492;-69
2024/02/18 02:33:25;;;;;;;9.70;4.78;;;7.60;99.90;;;;;;5037905;28;20113;-69
2024/02/18 02:35:51;;;;;;;14.48;6.32;;;7.60;99.90;;;;;;5027982;28;20108;-69
2024/02/18 02:38:17;;;;;;;6.60;4.30;;;7.60;99.90;;;;;;5031242;28;20034;-69
2024/02/18 02:40:43;;;;;;;10.85;4.97;;;7.60;99.90;;;;;;5032066;28;20021;-69
2024/02/18 02:43:10;;;;;;;7.93;4.45;;;7.60;99.90;;;;;;5037341;28;20072;-69
2024/02/18 02:45:37;;;;;;;8.77;4.53;;;7.60;99.90;;;;;;5033371;28;20014;-69
2024/02/18 02:48:03;;;;;;;9.13;4.93;;;7.60;99.90;;;;;;5029232;28;20040;-69
2024/02/18 02:50:29;;;;;;;12.00;4.45;;;7.60;99.90;;;;;;5024323;28;20520;-69
2024/02/18 02:52:55;;;;;;;14.70;4.63;;;7.50;99.90;;;;;;5032358;28;20089;-69
2024/02/18 02:55:21;;;;;;;22.75;4.68;;;7.50;99.90;;;;;;5029618;28;20037;-69
2024/02/18 02:57:48;;;;;;;8.38;4.22;;;7.50;99.90;;;;;;5029869;28;20021;-69
2024/02/18 03:00:16;;;;;;;6.88;5.10;;;7.50;99.90;;;;;;5016027;28;20037;-69
2024/02/18 03:02:41;;;;;;;10.70;5.25;;;7.50;99.90;;;;;;5034256;28;20064;-69
2024/02/18 03:05:11;;;;;;;8.30;4.75;;;7.40;99.90;;;;;;5024805;28;20077;-69
2024/02/18 03:07:37;;;;;;;10.30;4.97;;;7.40;99.90;;;;;;5032560;28;20029;-69
2024/02/18 03:10:04;;;;;;;18.17;6.03;;;7.40;99.90;;;;;;5032387;28;20056;-69
2024/02/18 03:12:30;;;;;;;8.75;4.57;;;7.40;99.90;;;;;;5029007;28;20482;-69
2024/02/18 03:14:56;;;;;;;6.65;4.07;;;7.40;99.90;;;;;;5035137;28;20036;-69
2024/02/18 03:17:22;;;;;;;10.35;5.53;;;7.30;99.90;;;;;;5030642;28;20041;-69
2024/02/18 03:19:48;;;;;;;11.88;5.47;;;7.30;99.90;;;;;;5030384;28;20032;-69
2024/02/18 03:22:23;;;;;;;15.45;5.57;;;7.30;99.90;;;;;;5030531;28;20397;-69
2024/02/18 03:24:50;;;;;;;8.48;5.28;;;7.30;99.90;;;;;;5031217;28;20033;-68
2024/02/18 03:27:17;;;;;;;9.50;5.07;;;7.30;99.90;;;;;;5032214;28;20029;-70
2024/02/18 03:29:44;;;;;;;12.23;5.05;;;7.30;99.90;;;;;;5032817;28;20036;-70
2024/02/18 03:32:10;;;;;;;9.55;4.70;;;7.30;99.90;;;;;;5032813;28;20069;-70
2024/02/18 03:34:36;;;;;;;11.80;4.78;;;7.30;99.90;;;;;;5014292;28;20435;-70
2024/02/18 03:37:02;;;;;;;9.32;4.40;;;7.40;99.90;;;;;;5031048;28;20038;-70
2024/02/18 03:39:28;;;;;;;11.68;4.65;;;7.50;99.90;;;;;;5031235;28;20037;-70
2024/02/18 03:41:53;;;;;;;7.05;4.10;;;7.40;99.90;;;;;;5030846;28;20116;-70
2024/02/18 03:44:19;;;;;;;11.25;5.45;;;7.50;99.90;;;;;;5028335;28;20025;-70
2024/02/18 03:46:46;;;;;;;7.75;5.28;;;7.40;99.90;;;;;;5020261;28;20480;-70
2024/02/18 03:49:11;;;;;;;8.40;5.22;;;7.50;99.90;;;;;;5012188;28;20033;-70
2024/02/18 03:51:37;;;;;;;10.05;4.65;;;7.50;99.90;;;;;;5031455;28;20116;-69
2024/02/18 03:54:03;;;;;;;13.82;6.18;;;7.50;99.90;;;;;;5031817;28;20029;-68
2024/02/18 03:56:34;;;;;;;9.07;5.20;;;7.60;99.90;;;;;;5031485;28;20040;-69
2024/02/18 03:58:59;;;;;;;17.48;5.22;;;7.50;99.90;;;;;;5032119;28;20112;-69
2024/02/18 04:01:25;;;;;;;6.53;3.78;;;7.40;99.90;;;;;;5031213;28;20112;-69
2024/02/18 04:03:51;;;;;;;20.30;5.93;;;7.40;99.90;;;;;;5034024;28;20086;-69
2024/02/18 04:06:19;;;;;;;12.95;5.43;;;7.50;99.90;;;;;;5024078;28;20084;-70
2024/02/18 04:08:45;;;;;;;9.38;5.45;;;7.50;99.90;;;;;;5033037;28;20029;-70
2024/02/18 04:11:11;;;;;;;11.07;5.03;;;7.50;99.90;;;;;;5031681;28;20445;-70
2024/02/18 04:13:37;;;;;;;6.80;4.13;;;7.50;99.90;;;;;;5032203;28;20105;-70
2024/02/18 04:16:04;;;;;;;6.88;4.63;;;7.40;99.90;;;;;;5031303;28;20038;-70
2024/02/18 04:18:29;;;;;;;10.30;4.35;;;7.40;99.90;;;;;;5024589;28;20064;-70
2024/02/18 04:20:55;;;;;;;13.05;5.68;;;7.40;99.90;;;;;;5031712;28;20054;-70
2024/02/18 04:23:21;;;;;;;21.20;5.50;;;7.40;99.90;;;;;;5032612;28;20033;-71
2024/02/18 04:25:46;;;;;;;13.13;4.75;;;7.30;99.90;;;;;;5030034;28;20030;-70
2024/02/18 04:28:12;;;;;;;9.15;4.88;;;7.30;99.90;;;;;;5032547;28;20029;-68
2024/02/18 04:30:38;;;;;;;12.00;5.47;;;7.30;99.90;;;;;;5030764;28;20021;-70
2024/02/18 04:33:04;;;;;;;13.57;5.68;;;7.30;99.90;;;;;;5033939;28;20041;-68
2024/02/18 04:35:29;;;;;;;11.05;4.50;;;7.30;99.90;;;;;;5031646;28;20034;-68
2024/02/18 04:37:55;;;;;;;13.07;4.90;;;7.30;99.90;;;;;;5031433;28;20037;-70
2024/02/18 04:40:21;;;;;;;10.57;5.72;;;7.20;99.90;;;;;;5023920;28;20071;-69
2024/02/18 04:42:47;;;;;;;10.98;4.28;;;7.10;99.90;;;;;;5030462;28;20026;-69
2024/02/18 04:45:13;;;;;;;14.00;4.22;;;7.20;99.90;;;;;;5022551;28;20513;-69
2024/02/18 04:47:38;;;;;;;9.68;5.53;;;7.10;99.90;;;;;;5031362;28;20106;-69
2024/02/18 04:50:05;;;;;;;10.52;5.30;;;7.10;99.90;;;;;;5032184;28;20040;-69
2024/02/18 04:52:31;;;;;;;9.93;4.60;;;7.00;99.90;;;;;;5027186;28;20465;-68
2024/02/18 04:54:57;;;;;;;16.00;6.15;;;7.10;99.90;;;;;;5030485;28;20470;-68
2024/02/18 04:57:22;;;;;;;6.47;3.75;;;7.00;99.90;;;;;;5019625;28;20037;-69
2024/02/18 04:59:48;;;;;;;9.95;5.30;;;7.00;99.90;;;;;;5014340;28;20044;-70
2024/02/18 05:02:15;;;;;;;8.88;5.05;;;7.10;99.90;;;;;;5032564;28;20104;-71
2024/02/18 05:04:40;;;;;;;7.13;4.32;;;7.00;99.90;;;;;;5030763;28;20029;-68
2024/02/18 05:07:06;;;;;;;12.45;5.60;;;7.00;99.90;;;;;;5029071;28;20048;-69
2024/02/18 05:09:32;;;;;;;9.98;5.10;;;7.00;99.90;;;;;;5022324;28;20061;-70
2024/02/18 05:11:58;;;;;;;8.55;4.35;;;7.00;99.90;;;;;;5023118;28;20037;-71
2024/02/18 05:14:23;;;;;;;10.73;5.60;;;7.00;99.90;;;;;;5022780;28;20140;-72
2024/02/18 05:16:49;;;;;;;9.52;5.88;;;7.00;99.90;;;;;;5022426;28;20025;-69
2024/02/18 05:19:16;;;;;;;10.32;4.93;;;7.00;99.90;;;;;;5007197;28;20083;-68
2024/02/18 05:21:42;;;;;;;7.68;4.00;;;7.00;99.90;;;;;;5025354;28;20044;-68
2024/02/18 05:24:13;;;;;;;11.35;4.93;;;7.10;99.90;;;;;;5025220;28;20030;-69
2024/02/18 05:26:39;;;;;;;11.82;6.30;;;7.00;99.90;;;;;;5031271;28;20032;-70
2024/02/18 05:29:06;;;;;;;10.68;5.93;;;7.00;99.90;;;;;;5025922;28;20033;-69
2024/02/18 05:31:32;;;;;;;10.13;4.72;;;7.00;99.90;;;;;;5025268;28;20029;-69
2024/02/18 05:33:57;;;;;;;8.60;5.60;;;7.00;99.90;;;;;;5028805;28;20420;-70
2024/02/18 05:36:23;;;;;;;9.80;5.47;;;7.00;99.90;;;;;;5026662;28;20441;-69
2024/02/18 05:38:49;;;;;;;8.18;4.28;;;7.00;99.90;;;;;;5029795;28;20090;-69
2024/02/18 05:41:16;;;;;;;8.95;5.70;;;7.00;99.90;;;;;;5029083;28;20686;-69
2024/02/18 05:43:42;;;;;;;8.77;5.03;;;7.00;99.90;;;;;;5017287;28;20494;-69
2024/02/18 05:46:09;;;;;;;8.38;4.50;;;7.00;99.90;;;;;;5030904;28;20078;-69
2024/02/18 05:48:35;;;;;;;7.40;4.40;;;6.90;99.90;;;;;;5029077;28;20484;-69
2024/02/18 05:51:01;;;;;;;13.13;4.45;;;6.90;99.90;;;;;;5025197;28;20038;-69
2024/02/18 05:53:27;;;;;;;12.60;4.47;;;6.80;99.90;;;;;;5018046;28;20033;-69
2024/02/18 05:55:53;;;;;;;16.70;5.20;;;6.80;99.90;;;;;;5024015;28;20509;-69
2024/02/18 05:58:19;;;;;;;8.02;4.45;;;6.80;99.90;;;;;;5033208;28;20037;-69
2024/02/18 06:00:45;;;;;;;12.75;4.40;;;6.80;99.90;;;;;;5030215;28;20474;-75
2024/02/18 06:03:11;;;;;;;8.13;4.15;;;6.80;99.90;;;;;;5031645;28;20049;-67
2024/02/18 06:05:37;;;;;;;8.48;5.18;;;6.80;99.90;;;;;;5030225;28;20474;-66
2024/02/18 06:08:03;;;;;;;12.45;5.75;;;6.80;99.90;;;;;;5023582;28;20502;-67
2024/02/18 06:10:30;;;;;;;6.85;4.07;;;6.80;99.90;;;;;;5033092;28;20508;-66
2024/02/18 06:12:56;;;;;;;9.65;4.72;;;6.70;99.90;;;;;;5027950;28;20033;-67
2024/02/18 06:15:22;;;;;;;8.00;4.95;;;6.70;99.90;;;;;;5038307;28;20061;-67
2024/02/18 06:17:47;;;;;;;12.55;5.32;;;6.70;99.90;;;;;;5026774;28;20076;-67
2024/02/18 06:20:13;;;;;;;9.93;5.30;;;6.70;99.90;;;;;;5033510;28;20030;-65
2024/02/18 06:22:40;;;;;;;10.07;4.22;;;6.70;99.90;;;;;;5033284;28;20049;-67
2024/02/18 06:25:07;;;;;;;7.70;4.18;;;6.70;99.90;;;;;;5019993;28;20354;-67
2024/02/18 06:27:35;;;;;;;7.65;3.63;;;6.70;99.90;;;;;;5023421;28;20091;-66
2024/02/18 06:30:05;;;;;;;11.90;5.15;;;6.70;99.90;;;;;;5033987;28;20460;-67
2024/02/18 06:32:31;;;;;;;7.85;4.03;;;6.60;99.90;;;;;;5018839;28;20025;-72
2024/02/18 06:34:57;;;;;;;12.40;6.50;;;6.60;99.90;;;;;;5033212;28;20051;-69
2024/02/18 06:37:22;;;;;;;6.65;3.78;;;6.60;99.90;;;;;;5032839;28;20117;-67
2024/02/18 06:39:48;;;;;;;16.73;4.75;;;6.60;99.90;;;;;;5033438;28;20026;-67
2024/02/18 06:42:14;;;;;;;8.93;4.60;;;6.70;99.90;;;;;;5031954;28;20569;-68
2024/02/18 06:44:40;;;;;;;9.60;5.20;;;6.70;99.90;;;;;;5033221;28;20104;-68
2024/02/18 06:47:05;;;;;;;7.05;3.15;;;6.70;99.90;;;;;;5034628;28;20466;-69
2024/02/18 06:49:31;;;;;;;8.90;4.22;;;6.70;99.90;;;;;;5033270;28;20034;-69
2024/02/18 06:51:57;;;;;;;8.45;4.75;;;6.80;99.90;;;;;;5034142;28;20034;-68
2024/02/18 06:54:23;;;;;;;6.32;3.83;;;6.80;99.90;;;;;;5022900;28;20108;-69
2024/02/18 06:56:49;;;;;;;10.05;4.47;;;6.80;99.90;;;;;;5031104;28;20156;-74
2024/02/18 06:59:16;;;;;;;8.18;4.50;;;6.80;99.90;;;;;;5023567;28;20072;-69
2024/02/18 07:01:42;;;;;;;7.15;4.43;;;6.80;99.90;;;;;;5033197;28;20033;-68
2024/02/18 07:04:08;;;;;;;8.73;4.78;;;6.90;99.90;;;;;;5012044;28;20038;-68
2024/02/18 07:06:34;;;;;;;7.65;3.97;;;6.90;99.90;;;;;;5030346;28;20056;-68
2024/02/18 07:09:00;;;;;;;11.05;3.97;;;7.00;99.90;;;;;;5027022;28;20513;-67
2024/02/18 07:11:26;;;;;;;8.27;4.82;;;7.00;99.90;;;;;;5017752;28;20038;-68
2024/02/18 07:13:55;;;;;;;7.90;4.53;;;7.10;99.90;;;;;;5027201;28;20104;-67
2024/02/18 07:16:21;;;;;;;9.48;4.82;;;7.20;99.90;;;;;;5031319;28;20021;-68
2024/02/18 07:18:47;;;;;;;9.50;4.70;;;7.30;99.90;;;;;;5026791;28;20037;-68
2024/02/18 07:21:14;;;;;;;7.80;3.90;;;7.30;99.90;;;;;;5031279;28;20047;-68
2024/02/18 07:23:46;;;;;;;8.40;4.90;;;7.30;99.90;;;;;;5020777;28;20497;-68
2024/02/18 07:26:14;;;;;;;8.95;4.43;;;7.30;99.90;;;;;;5022057;28;20566;-68
2024/02/18 07:28:40;;;;;;;12.07;5.78;;;7.30;99.90;;;;;;5024434;28;20489;-69
2024/02/18 07:31:07;;;;;;;9.32;4.97;;;7.30;99.90;;;;;;5015414;28;20453;-67
2024/02/18 07:33:33;;;;;;;8.88;5.05;;;7.40;99.90;;;;;;5020500;28;20064;-69
2024/02/18 07:35:59;;;;;;;7.70;4.68;;;7.40;99.90;;;;;;5027837;28;20061;-69
2024/02/18 07:38:26;;;;;;;8.00;4.28;;;7.50;99.90;;;;;;5008746;28;20048;-69
2024/02/18 07:40:53;;;;;;;9.77;3.70;;;7.50;99.90;;;;;;5032158;28;20461;-69
2024/02/18 07:43:20;;;;;;;17.35;5.43;;;7.50;99.90;;;;;;5029806;28;20033;-70
2024/02/18 07:45:46;;;;;;;7.85;4.85;;;7.60;99.90;;;;;;5010500;28;20021;-68
2024/02/18 07:48:13;;;;;;;8.85;4.20;;;7.70;99.90;;;;;;5029776;28;20064;-68
2024/02/18 07:50:39;;;;;;;9.43;3.35;;;7.60;99.90;;;;;;5033526;28;20143;-69
2024/02/18 07:53:05;;;;;;;7.30;4.20;;;7.60;99.90;;;;;;5030812;28;20029;-67
2024/02/18 07:55:31;;;;;;;6.60;4.05;;;7.70;99.90;;;;;;5032480;28;20027;-68
2024/02/18 07:57:58;;;;;;;7.55;3.45;;;7.70;99.90;;;;;;5029965;28;20037;-68
2024/02/18 08:00:24;;;;;;;9.35;4.28;;;7.80;99.90;;;;;;5026548;28;20252;-69
2024/02/18 08:02:50;;;;;;;9.13;4.25;;;7.80;99.90;;;;;;5012568;28;20021;-69
2024/02/18 08:05:16;;;;;;;7.68;4.60;;;7.90;99.90;;;;;;5028852;28;20375;-68
2024/02/18 08:07:42;;;;;;;10.07;4.65;;;8.00;99.90;;;;;;5030032;28;20036;-69
2024/02/18 08:10:08;;;;;;;12.95;4.65;;;8.00;99.90;;;;;;5048183;28;20485;-69
2024/02/18 08:12:33;;;;;;;12.00;2.92;;;8.10;99.90;;;;;;5019153;28;20044;-69
2024/02/18 08:14:59;;;;;;;9.23;4.30;;;8.10;99.90;;;;;;5032271;28;20089;-69
2024/02/18 08:17:25;;;;;;;7.82;4.15;;;8.20;99.90;;;;;;5029207;28;20033;-69
2024/02/18 08:19:51;;;;;;;12.00;5.85;;;8.30;99.90;;;;;;5025508;28;20018;-69
2024/02/18 08:22:17;;;;;;;9.82;3.38;;;8.40;99.90;;;;;;5029162;28;20478;-70
2024/02/18 08:24:43;;;;;;;7.30;4.75;;;8.50;99.90;;;;;;5007956;28;20029;-69
2024/02/18 08:27:09;;;;;;;5.68;3.42;;;8.50;99.90;;;;;;5022645;28;20512;-69
2024/02/18 08:29:37;;;;;;;10.90;4.18;;;8.40;99.90;;;;;;5024175;28;20033;-68
2024/02/18 08:32:05;;;;;;;15.75;4.13;;;8.40;99.90;;;;;;5032990;28;20396;-68
2024/02/18 08:34:30;;;;;;;14.10;4.13;;;8.50;99.90;;;;;;5030284;28;20041;-69
2024/02/18 08:36:56;;;;;;;6.88;3.35;;;8.60;99.90;;;;;;5031171;28;20026;-69
2024/02/18 08:39:23;;;;;;;9.52;4.78;;;8.60;99.90;;;;;;5030963;28;20033;-61
2024/02/18 08:41:50;;;;;;;11.55;3.80;;;8.70;99.90;;;;;;5030204;28;20036;-59
2024/02/18 08:44:16;;;;;;;8.73;3.78;;;8.80;99.90;;;;;;5030229;28;20065;-60
2024/02/18 08:46:43;;;;;;;11.02;4.20;;;8.90;99.90;;;;;;5031561;28;20017;-60
2024/02/18 08:49:09;;;;;;;6.07;4.10;;;9.00;99.90;;;;;;5030743;28;20040;-48
2024/02/18 08:51:38;;;;;;;8.30;4.18;;;8.90;99.90;;;;;;5027492;28;20357;-68
2024/02/18 08:54:05;;;;;;;7.20;4.20;;;8.70;99.90;;;;;;5041566;28;20398;-70
2024/02/18 08:56:31;;;;;;;6.75;3.60;;;8.70;99.90;;;;;;5027214;28;20108;-70
2024/02/18 08:58:57;;;;;;;7.75;4.07;;;8.70;99.90;;;;;;5031631;28;20105;-70
2024/02/18 09:01:22;;;;;;;12.65;4.25;;;8.80;99.90;;;;;;5023712;28;20030;-69
2024/02/18 09:03:48;;;;;;;12.93;4.55;;;8.80;99.90;;;;;;5027369;28;20062;-70
2024/02/18 09:06:14;;;;;;;5.97;3.65;;;9.00;99.90;;;;;;5011945;28;20037;-69
2024/02/18 09:08:40;;;;;;;9.98;3.22;;;9.00;99.90;;;;;;5003775;28;20366;-69
2024/02/18 09:11:05;;;;;;;5.72;4.03;;;9.10;99.90;;;;;;5026507;28;20029;-70
2024/02/18 09:13:32;;;;;;;6.55;4.22;;;9.20;99.90;;;;;;5030379;28;20125;-70
2024/02/18 09:15:58;;;;;;;12.00;3.20;;;9.10;99.90;;;;;;5024242;28;20524;-69
2024/02/18 09:18:24;;;;;;;11.15;4.43;;;9.30;99.90;;;;;;5029931;28;20078;-70
2024/02/18 09:20:49;;;;;;;9.07;4.40;;;9.30;99.90;;;;;;5031122;28;20083;-70
2024/02/18 09:23:16;;;;;;;10.75;5.03;;;9.50;99.90;;;;;;5030335;28;20049;-70
2024/02/18 09:25:42;;;;;;;18.55;5.63;;;9.60;99.90;;;;;;5031090;28;20024;-70
2024/02/18 09:28:08;;;;;;;8.95;4.18;;;9.30;99.90;;;;;;5031019;28;20071;-70
2024/02/18 09:30:36;;;;;;;7.32;3.35;;;9.50;99.90;;;;;;5029646;28;20069;-70
2024/02/18 09:33:04;;;;;;;7.20;3.58;;;9.50;99.90;;;;;;5032640;28;20035;-69
2024/02/18 09:35:30;;;;;;;5.13;3.65;;;9.50;99.90;;;;;;5030678;28;20036;-69
2024/02/18 09:37:58;;;;;;;7.68;3.83;;;9.50;99.90;;;;;;5029368;28;20073;-69
2024/02/18 09:40:24;;;;;;;11.52;3.17;;;9.60;99.90;;;;;;5024139;28;20064;-70
2024/02/18 09:42:51;;;;;;;8.68;3.35;;;9.70;99.90;;;;;;5009225;28;20069;-69
2024/02/18 09:45:23;;;;;;;5.78;4.00;;;9.50;99.90;;;;;;5014677;28;20030;-69
2024/02/18 09:47:50;;;;;;;9.55;4.15;;;9.70;99.90;;;;;;5027969;28;20083;-69
2024/02/18 09:50:15;;;;;;;6.32;3.28;;;9.70;99.90;;;;;;5037280;28;20034;-69
2024/02/18 09:52:42;;;;;;;6.88;3.78;;;9.70;99.90;;;;;;4998162;28;20045;-70
2024/02/18 09:55:09;;;;;;;7.13;4.20;;;9.60;99.90;;;;;;5026008;28;20025;-71
2024/02/18 09:57:36;;;;;;;5.47;3.28;;;9.60;99.90;;;;;;5043321;28;20099;-69
2024/02/18 10:00:03;;;;;;;6.25;2.92;;;9.50;99.90;;;;;;5019878;28;20560;-68
2024/02/18 10:02:29;;;;;;;5.05;3.08;;;9.70;99.90;;;;;;5030269;28;20044;-68
2024/02/18 10:04:54;;;;;;;7.30;4.70;;;9.80;99.90;;;;;;5025139;28;20033;-67
2024/02/18 10:07:20;;;;;;;3.92;2.55;;;10.00;99.90;;;;;;5025674;28;20029;-69
2024/02/18 10:09:46;;;;;;;7.40;3.45;;;10.00;99.90;;;;;;5025948;28;20026;-68
2024/02/18 10:12:12;;;;;;;6.38;3.30;;;10.20;99.90;;;;;;5028716;28;20033;-67
2024/02/18 10:14:37;;;;;;;5.05;3.28;;;10.50;99.90;;;;;;5030086;28;20365;-68
2024/02/18 10:17:04;;;;;;;9.80;3.80;;;10.60;99.90;;;;;;5030607;28;20029;-68
2024/02/18 10:19:29;;;;;;;7.45;4.22;;;10.60;99.90;;;;;;5031075;28;20029;-68
2024/02/18 10:22:00;;;;;;;7.82;4.65;;;10.70;99.90;;;;;;5029025;28;20040;-68
2024/02/18 10:24:26;;;;;;;9.15;3.35;;;10.70;99.90;;;;;;5036344;28;20490;-69
2024/02/18 10:26:57;;;;;;;4.68;2.58;;;10.60;99.90;;;;;;5029339;28;20120;-68
2024/02/18 10:29:26;;;;;;;7.18;3.03;;;10.70;99.90;;;;;;5027834;28;20494;-69
2024/02/18 10:31:52;;;;;;;7.43;2.92;;;10.70;99.90;;;;;;5022279;28;20454;-69
2024/02/18 10:34:18;;;;;;;6.32;3.03;;;10.70;99.90;;;;;;5016779;28;20111;-70
2024/02/18 10:36:52;;;;;;;5.35;3.30;;;10.80;99.90;;;;;;5019818;28;20456;-69
2024/02/18 10:39:21;;;;;;;8.98;2.80;;;10.60;99.90;;;;;;5010071;28;20132;-70
2024/02/18 10:42:02;;;;;;;4.93;2.40;;;10.90;99.90;;;;;;5022211;28;20054;-70
2024/02/18 10:44:31;;;;;;;4.40;2.20;;;10.80;99.90;;;;;;5030899;28;20568;-69
2024/02/18 10:46:58;;;;;;;8.63;3.05;;;11.00;99.90;;;;;;5032871;28;20048;-70
2024/02/18 10:49:37;;;;;;;5.03;2.65;;;10.90;99.90;;;;;;5002099;28;20057;-70
2024/02/18 10:52:20;;;;;;;6.00;2.75;;;11.20;99.90;;;;;;5032687;28;20037;-72
2024/02/18 10:55:01;;;;;;;7.85;3.42;;;11.40;99.90;;;;;;5032623;28;20084;-70
2024/02/18 10:57:31;;;;;;;5.43;2.38;;;11.30;99.90;;;;;;5032886;28;20030;-70
2024/02/18 11:00:04;;;;;;;5.97;2.63;;;11.50;99.90;;;;;;5032858;28;20038;-70
2024/02/18 11:03:00;;;;;;;9.38;2.15;;;11.30;99.90;;;;;;5035015;28;20029;-70
2024/02/18 11:05:32;;;;;;;7.53;2.30;;;11.30;99.90;;;;;;5032461;28;20182;-70
2024/02/18 11:08:00;;;;;;;5.38;3.17;;;11.00;99.90;;;;;;5032523;28;20029;-69
2024/02/18 11:10:26;;;;;;;6.35;2.78;;;11.10;99.90;;;;;;5032259;28;20048;-69
2024/02/18 11:12:53;;;;;;;2.63;1.75;;;11.20;99.90;;;;;;5048939;28;20121;-69
2024/02/18 11:15:19;;;;;;;3.38;2.40;;;11.30;99.90;;;;;;5032116;28;20391;-69
2024/02/18 11:17:45;;;;;;;5.63;2.13;;;11.50;99.90;;;;;;5033294;28;20026;-70
2024/02/18 11:20:13;;;;;;;4.25;2.22;;;11.70;99.90;;;;;;5009452;28;20363;-70
2024/02/18 11:22:39;;;;;;;4.78;2.67;;;11.70;99.90;;;;;;5010685;28;20025;-70
2024/02/18 11:25:06;;;;;;;3.72;2.08;;;11.60;99.90;;;;;;5024440;28;20414;-70
2024/02/18 11:27:36;;;;;;;4.53;2.28;;;11.50;99.90;;;;;;5031365;28;20537;-69
2024/02/18 11:30:07;;;;;;;5.90;2.42;;;11.40;99.90;;;;;;5032269;28;20041;-68
2024/02/18 11:32:33;;;;;;;6.72;2.63;;;11.40;99.90;;;;;;5033379;28;20363;-68
2024/02/18 11:35:17;;;;;;;22.48;11.52;;;11.70;99.90;;;;;;5031677;28;20114;-69
2024/02/18 11:37:43;;;;;;;5.97;2.90;;;11.70;99.90;;;;;;5026716;28;20029;-69
2024/02/18 11:40:17;;;;;;;5.88;2.45;;;11.40;99.90;;;;;;5033386;28;20037;-68
2024/02/18 11:42:45;;;;;;;4.25;2.00;;;11.50;99.90;;;;;;5030822;28;20421;-68
2024/02/18 11:45:23;;;;;;;5.00;2.47;;;11.40;99.90;;;;;;5028514;28;20480;-68
2024/02/18 11:47:51;;;;;;;4.93;2.65;;;11.30;99.90;;;;;;5007264;28;20150;-71
2024/02/18 11:50:19;;;;;;;10.15;4.30;;;11.40;99.90;;;;;;5024022;28;20132;-69
2024/02/18 11:52:50;;;;;;;6.63;4.13;;;11.50;99.90;;;;;;5011639;28;20081;-72
2024/02/18 11:55:24;;;;;;;17.58;6.22;;;11.60;99.90;;;;;;5021823;28;20037;-67
2024/02/18 11:57:50;;;;;;;7.53;1.50;;;11.60;99.90;;;;;;5026364;28;20098;-68
2024/02/18 12:00:18;;;;;;;3.45;1.80;;;11.70;99.90;;;;;;5027430;28;20030;-68
2024/02/18 12:02:55;;;;;;;4.25;2.00;;;11.90;99.90;;;;;;5031377;28;20043;-69
2024/02/18 12:05:23;;;;;;;6.57;2.20;;;11.90;99.90;;;;;;5029974;28;20120;-68
2024/02/18 12:07:51;;;;;;;4.22;2.00;;;11.70;99.90;;;;;;5032749;28;20032;-68
2024/02/18 12:10:18;;;;;;;3.25;1.95;;;11.80;99.90;;;;;;5030495;28;20038;-67
2024/02/18 12:12:44;;;;;;;3.10;2.03;;;11.70;99.90;;;;;;5031080;28;20469;-67
2024/02/18 12:15:21;;;;;;;6.70;2.05;;;11.70;99.90;;;;;;5013203;28;20040;-68
2024/02/18 12:17:48;;;;;;;4.80;1.80;;;11.70;99.90;;;;;;5031129;28;20025;-68
2024/02/18 12:20:19;;;;;;;7.25;1.63;;;11.80;99.90;;;;;;5031424;28;20061;-68
2024/02/18 12:22:46;;;;;;;3.23;1.67;;;11.90;99.90;;;;;;5030998;28;20025;-67
2024/02/18 12:25:14;;;;;;;2.20;1.52;;;11.80;99.90;;;;;;5029771;28;20295;-68
2024/02/18 12:27:40;;;;;;;3.08;1.58;;;11.80;99.90;;;;;;5031296;28;20540;-67
2024/02/18 12:30:07;;;;;;;2.72;1.65;;;12.00;99.90;;;;;;5013794;28;20373;-65
2024/02/18 12:32:36;;;;;;;3.85;2.00;;;12.20;99.90;;;;;;5014598;28;20425;-66
2024/02/18 12:35:03;;;;;;;7.57;1.92;;;12.20;99.90;;;;;;5028408;28;20520;-66
2024/02/18 12:37:32;;;;;;;4.32;2.20;;;12.10;99.90;;;;;;5032208;28;20069;-68
2024/02/18 12:39:58;;;;;;;3.30;2.05;;;11.90;99.90;;;;;;5028931;28;20490;-67
2024/02/18 12:42:24;;;;;;;2.58;1.48;;;11.70;99.90;;;;;;5027916;28;20057;-66
2024/02/18 12:44:50;;;;;;;10.10;2.13;;;11.80;99.90;;;;;;5028708;28;20024;-66
2024/02/18 12:47:17;;;;;;;4.55;1.85;;;11.80;99.90;;;;;;5013960;28;20029;-67
2024/02/18 12:49:43;;;;;;;4.53;2.28;;;12.00;99.90;;;;;;5012310;28;20084;-67
2024/02/18 12:52:14;;;;;;;4.20;2.00;;;11.90;99.90;;;;;;5019729;28;20037;-67